createdAt,value
2023-07-12T00:02:22.421Z,24.51
2023-07-12T00:04:57.206Z,24.53
2023-07-12T00:07:32.884Z,24.55
2023-07-12T00:10:16.113Z,24.40
2023-07-12T00:12:51.400Z,24.51
2023-07-12T00:15:29.737Z,24.61
2023-07-12T00:18:04.259Z,24.57
2023-07-12T00:20:39.773Z,24.64
2023-07-12T00:23:17.413Z,24.55
2023-07-12T00:25:52.315Z,24.51
2023-07-12T00:28:29.225Z,24.51
2023-07-12T00:31:03.960Z,24.43
2023-07-12T00:33:39.070Z,24.39
2023-07-12T00:36:17.565Z,24.30
2023-07-12T00:38:54.224Z,24.28
2023-07-12T00:41:46.145Z,24.37
2023-07-12T00:44:24.918Z,24.40
2023-07-12T00:47:00.633Z,24.32
2023-07-12T00:49:35.248Z,24.26
2023-07-12T00:52:15.616Z,24.26
2023-07-12T00:54:54.816Z,24.23
2023-07-12T00:57:31.324Z,24.37
2023-07-12T01:00:12.251Z,24.28
2023-07-12T01:02:48.878Z,24.34
2023-07-12T01:05:23.519Z,24.32
2023-07-12T01:07:58.269Z,24.22
2023-07-12T01:10:37.707Z,24.17
2023-07-12T01:13:14.080Z,24.23
2023-07-12T01:15:48.521Z,24.27
2023-07-12T01:18:23.554Z,24.09
2023-07-12T01:21:11.575Z,24.26
2023-07-12T01:23:47.630Z,24.22
2023-07-12T01:26:28.285Z,24.11
2023-07-12T01:29:05.355Z,24.22
2023-07-12T01:31:41.212Z,24.14
2023-07-12T01:34:18.986Z,24.30
2023-07-12T01:36:56.372Z,24.18
2023-07-12T01:39:31.060Z,24.23
2023-07-12T01:42:06.030Z,24.21
2023-07-12T01:44:41.652Z,24.24
2023-07-12T01:47:15.992Z,24.23
2023-07-12T01:49:50.689Z,24.27
2023-07-12T01:52:26.666Z,24.35
2023-07-12T01:55:01.441Z,24.29
2023-07-12T01:57:35.807Z,24.35
2023-07-12T02:00:11.872Z,24.36
2023-07-12T02:02:50.567Z,24.36
2023-07-12T02:05:25.466Z,24.34
2023-07-12T02:08:01.265Z,24.34
2023-07-12T02:10:36.015Z,24.40
2023-07-12T02:13:11.628Z,24.33
2023-07-12T02:15:46.880Z,24.26
2023-07-12T02:18:23.177Z,24.25
2023-07-12T02:20:58.064Z,24.24
2023-07-12T02:23:33.861Z,24.19
2023-07-12T02:26:10.777Z,24.26
2023-07-12T02:28:45.180Z,24.25
2023-07-12T02:31:22.724Z,24.21
2023-07-12T02:33:57.092Z,23.98
2023-07-12T02:36:31.836Z,24.08
2023-07-12T02:39:07.608Z,24.00
2023-07-12T02:41:42.349Z,24.01
2023-07-12T02:44:16.713Z,24.01
2023-07-12T02:46:51.408Z,23.97
2023-07-12T02:49:25.785Z,24.00
2023-07-12T02:52:00.695Z,23.85
2023-07-12T02:54:37.602Z,23.98
2023-07-12T02:57:14.083Z,23.85
2023-07-12T02:59:48.405Z,23.64
2023-07-12T03:02:23.105Z,23.60
2023-07-12T03:04:57.474Z,23.73
2023-07-12T03:07:32.199Z,23.63
2023-07-12T03:10:08.777Z,23.63
2023-07-12T03:12:43.476Z,23.59
2023-07-12T03:15:19.356Z,23.58
2023-07-12T03:17:54.800Z,23.57
2023-07-12T03:20:29.154Z,23.65
2023-07-12T03:23:03.898Z,23.69
2023-07-12T03:25:39.651Z,23.75
2023-07-12T03:28:14.399Z,23.74
2023-07-12T03:30:59.360Z,23.83
2023-07-12T03:33:34.473Z,23.81
2023-07-12T03:36:08.900Z,24.00
2023-07-12T03:38:44.234Z,23.90
2023-07-12T03:41:22.873Z,23.79
2023-07-12T03:43:57.474Z,23.89
2023-07-12T03:46:31.788Z,23.82
2023-07-12T03:49:06.435Z,23.88
2023-07-12T03:51:40.682Z,23.85
2023-07-12T03:54:15.783Z,23.77
2023-07-12T03:56:53.857Z,23.85
2023-07-12T03:59:30.031Z,24.06
2023-07-12T04:02:04.319Z,24.07
2023-07-12T04:04:38.947Z,24.11
2023-07-12T04:07:13.188Z,24.10
2023-07-12T04:09:47.851Z,24.21
2023-07-12T04:12:23.656Z,24.18
2023-07-12T04:14:59.490Z,24.28
2023-07-12T04:17:34.664Z,24.34
2023-07-12T04:20:11.218Z,24.15
2023-07-12T04:22:45.637Z,23.95
2023-07-12T04:25:21.072Z,23.81
2023-07-12T04:27:56.720Z,23.90
2023-07-12T04:30:31.713Z,23.94
2023-07-12T04:33:06.534Z,24.18
2023-07-12T04:35:41.375Z,24.05
2023-07-12T04:38:15.767Z,24.04
2023-07-12T04:40:55.337Z,24.10
2023-07-12T04:43:31.243Z,24.03
2023-07-12T04:46:06.359Z,23.98
2023-07-12T04:48:40.638Z,24.13
2023-07-12T04:51:15.233Z,24.23
2023-07-12T04:53:49.769Z,24.10
2023-07-12T04:56:24.448Z,24.28
2023-07-12T04:59:00.272Z,24.43
2023-07-12T05:01:35.486Z,24.53
2023-07-12T05:04:10.130Z,24.51
2023-07-12T05:06:45.455Z,24.56
2023-07-12T05:09:19.736Z,24.62
2023-07-12T05:11:54.334Z,24.59
2023-07-12T05:14:30.086Z,24.79
2023-07-12T05:17:05.637Z,24.92
2023-07-12T05:19:39.982Z,24.85
2023-07-12T05:22:14.665Z,24.99
2023-07-12T05:24:49.029Z,24.96
2023-07-12T05:27:23.685Z,25.04
2023-07-12T05:29:59.452Z,25.14
2023-07-12T05:32:34.281Z,25.24
2023-07-12T05:35:09.392Z,25.29
2023-07-12T05:37:44.192Z,25.39
2023-07-12T05:40:19.006Z,25.47
2023-07-12T05:42:54.012Z,25.58
2023-07-12T05:45:29.827Z,25.62
2023-07-12T05:48:04.703Z,25.85
2023-07-12T05:50:39.287Z,25.80
2023-07-12T05:53:13.911Z,25.95
2023-07-12T05:55:48.405Z,25.78
2023-07-12T05:58:23.368Z,26.07
2023-07-12T06:02:56.281Z,26.58
2023-07-12T06:05:31.453Z,26.58
2023-07-12T06:08:06.161Z,26.05
2023-07-12T06:10:41.238Z,26.22
2023-07-12T06:13:17.033Z,26.35
2023-07-12T06:15:51.854Z,26.44
2023-07-12T06:18:27.719Z,26.51
2023-07-12T06:21:04.081Z,26.47
2023-07-12T06:23:38.640Z,26.57
2023-07-12T06:26:13.320Z,26.67
2023-07-12T06:28:47.577Z,26.77
2023-07-12T06:31:22.290Z,26.75
2023-07-12T06:34:01.965Z,26.61
2023-07-12T06:36:36.682Z,26.88
2023-07-12T06:39:11.132Z,27.14
2023-07-12T06:41:45.868Z,27.15
2023-07-12T06:44:25.463Z,27.29
2023-07-12T06:47:00.084Z,27.43
2023-07-12T06:49:36.240Z,27.43
2023-07-12T06:52:12.377Z,27.56
2023-07-12T06:54:46.694Z,27.58
2023-07-12T06:57:21.337Z,27.76
2023-07-12T06:59:55.675Z,27.84
2023-07-12T07:02:30.381Z,27.91
2023-07-12T07:05:07.005Z,27.98
2023-07-12T07:07:41.683Z,27.98
2023-07-12T07:10:17.093Z,28.13
2023-07-12T07:12:52.735Z,28.36
2023-07-12T07:15:27.764Z,28.39
2023-07-12T07:18:02.554Z,28.35
2023-07-12T07:20:38.511Z,28.11
2023-07-12T07:23:13.872Z,28.48
2023-07-12T07:25:48.562Z,28.56
2023-07-12T07:28:23.300Z,28.67
2023-07-12T07:30:58.506Z,28.75
2023-07-12T07:33:33.271Z,28.90
2023-07-12T07:36:11.831Z,28.90
2023-07-12T07:38:46.716Z,28.99
2023-07-12T07:41:22.032Z,29.13
2023-07-12T07:43:56.725Z,29.22
2023-07-12T07:46:31.234Z,29.27
2023-07-12T07:49:05.976Z,29.32
2023-07-12T07:51:41.900Z,29.44
2023-07-12T07:54:16.648Z,29.44
2023-07-12T07:56:51.488Z,29.63
2023-07-12T07:59:26.281Z,29.67
2023-07-12T08:02:00.681Z,29.56
2023-07-12T08:04:35.440Z,29.63
2023-07-12T08:07:13.729Z,29.50
2023-07-12T08:09:48.407Z,29.28
2023-07-12T08:12:23.194Z,29.30
2023-07-12T08:14:57.953Z,29.19
2023-07-12T08:17:32.710Z,29.40
2023-07-12T08:20:09.737Z,29.31
2023-07-12T08:22:45.973Z,29.27
2023-07-12T08:25:20.797Z,29.05
2023-07-12T08:27:55.282Z,29.13
2023-07-12T08:30:30.042Z,29.57
2023-07-12T08:33:04.562Z,29.46
2023-07-12T08:35:48.016Z,29.61
2023-07-12T08:38:25.872Z,29.79
2023-07-12T08:41:01.328Z,30.09
2023-07-12T08:43:35.944Z,30.05
2023-07-12T08:46:17.270Z,30.09
2023-07-12T08:48:55.104Z,30.07
2023-07-12T08:51:34.159Z,30.25
2023-07-12T08:54:23.379Z,30.58
2023-07-12T08:57:17.968Z,30.63
2023-07-12T09:00:03.393Z,30.37
2023-07-12T09:02:38.929Z,30.56
2023-07-12T09:05:16.378Z,30.46
2023-07-12T09:07:57.408Z,30.26
2023-07-12T09:10:42.036Z,30.41
2023-07-12T09:13:18.422Z,30.43
2023-07-12T09:15:56.193Z,30.71
2023-07-12T09:18:34.681Z,30.57
2023-07-12T09:21:15.824Z,30.63
2023-07-12T09:23:50.608Z,30.68
2023-07-12T09:26:29.164Z,30.88
2023-07-12T09:29:08.491Z,31.15
2023-07-12T09:31:45.764Z,31.28
2023-07-12T09:34:26.686Z,31.36
2023-07-12T09:37:02.588Z,31.49
2023-07-12T09:39:37.800Z,31.56
2023-07-12T09:42:14.123Z,31.44
2023-07-12T09:44:49.935Z,31.31
2023-07-12T09:47:36.511Z,31.26
2023-07-12T09:50:18.158Z,31.04
2023-07-12T09:53:01.356Z,31.04
2023-07-12T09:55:44.888Z,31.17
2023-07-12T09:58:30.929Z,31.10
2023-07-12T10:01:11.742Z,31.54
2023-07-12T10:03:58.120Z,31.42
2023-07-12T10:06:39.142Z,31.39
2023-07-12T10:09:22.282Z,31.70
2023-07-12T10:12:03.934Z,31.92
2023-07-12T10:14:42.781Z,31.91
2023-07-12T10:17:26.065Z,32.26
2023-07-12T10:20:02.335Z,32.35
2023-07-12T10:22:40.227Z,32.24
2023-07-12T10:25:24.819Z,32.22
2023-07-12T10:28:04.946Z,32.12
2023-07-12T10:30:42.059Z,32.46
2023-07-12T10:33:24.679Z,32.37
2023-07-12T10:36:04.103Z,32.42
2023-07-12T10:38:38.625Z,32.79
2023-07-12T10:41:19.397Z,32.78
2023-07-12T10:44:01.679Z,32.71
2023-07-12T10:46:41.461Z,32.76
2023-07-12T10:49:17.656Z,33.04
2023-07-12T10:52:07.976Z,32.97
2023-07-12T10:54:53.321Z,32.63
2023-07-12T10:57:30.276Z,32.99
2023-07-12T11:00:21.737Z,32.76
2023-07-12T11:03:21.836Z,32.80
2023-07-12T11:06:24.076Z,32.80
2023-07-12T11:09:09.042Z,33.20
2023-07-12T11:11:47.484Z,33.22
2023-07-12T11:14:27.696Z,33.47
2023-07-12T11:17:21.987Z,33.24
2023-07-12T11:20:10.706Z,33.18
2023-07-12T11:23:00.473Z,33.41
2023-07-12T11:25:41.742Z,33.28
2023-07-12T11:28:41.178Z,33.15
2023-07-12T11:31:28.049Z,33.24
2023-07-12T11:34:12.483Z,33.07
2023-07-12T11:36:55.848Z,33.13
2023-07-12T11:39:30.731Z,33.07
2023-07-12T11:42:10.128Z,33.27
2023-07-12T11:44:44.703Z,33.45
2023-07-12T11:47:19.462Z,33.68
2023-07-12T11:49:58.857Z,33.74
2023-07-12T11:52:37.079Z,33.64
2023-07-12T11:55:17.371Z,33.55
2023-07-12T11:57:52.100Z,33.54
2023-07-12T12:00:29.850Z,33.86
2023-07-12T12:03:08.037Z,34.03
2023-07-12T12:05:44.691Z,33.96
2023-07-12T12:08:23.278Z,34.02
2023-07-12T12:10:58.115Z,33.74
2023-07-12T12:13:34.436Z,33.73
2023-07-12T12:16:20.341Z,33.65
2023-07-12T12:18:58.704Z,33.78
2023-07-12T12:21:34.080Z,33.68
2023-07-12T12:24:24.192Z,33.90
2023-07-12T12:27:05.740Z,34.05
2023-07-12T12:29:43.683Z,34.04
2023-07-12T12:32:20.807Z,34.12
2023-07-12T12:34:56.822Z,34.22
2023-07-12T12:37:31.758Z,34.19
2023-07-12T12:40:19.317Z,34.41
2023-07-12T12:42:59.452Z,34.63
2023-07-12T12:45:36.458Z,35.04
2023-07-12T12:48:17.842Z,34.91
2023-07-12T12:53:47.904Z,35.29
2023-07-12T13:02:41.216Z,34.96
2023-07-12T13:17:01.030Z,34.63
2023-07-12T13:18:52.989Z,34.55
2023-07-12T13:21:18.852Z,34.25
2023-07-12T13:23:53.689Z,33.82
2023-07-12T13:26:28.827Z,34.01
2023-07-12T13:29:04.888Z,34.01
2023-07-12T13:31:39.595Z,33.88
2023-07-12T13:34:15.730Z,33.91
2023-07-12T13:36:53.185Z,34.13
2023-07-12T13:39:41.296Z,34.26
2023-07-12T13:42:41.926Z,33.98
2023-07-12T13:45:16.923Z,33.99
2023-07-12T13:47:54.212Z,34.08
2023-07-12T13:50:28.741Z,34.19
2023-07-12T13:53:03.517Z,33.93
2023-07-12T13:55:44.467Z,33.90
2023-07-12T13:58:30.477Z,34.23
2023-07-12T14:03:55.836Z,35.92
2023-07-12T14:06:53.997Z,35.92
2023-07-12T14:09:25.945Z,35.03
2023-07-12T14:12:02.508Z,34.95
2023-07-12T14:14:36.788Z,34.81
2023-07-12T14:17:14.958Z,34.96
2023-07-12T14:19:54.828Z,35.06
2023-07-12T14:22:33.579Z,35.29
2023-07-12T14:25:08.393Z,35.76
2023-07-12T14:27:43.015Z,35.84
2023-07-12T14:32:55.920Z,35.69
2023-07-12T14:35:31.871Z,35.50
2023-07-12T14:38:13.428Z,35.63
2023-07-12T14:40:47.922Z,35.65
2023-07-12T14:43:22.771Z,36.19
2023-07-12T14:45:57.500Z,36.51
2023-07-12T14:48:33.444Z,36.63
2023-07-12T14:51:16.547Z,36.54
2023-07-12T14:53:52.408Z,36.41
2023-07-12T14:56:27.142Z,36.33
2023-07-12T14:59:01.850Z,36.29
2023-07-12T15:01:36.349Z,36.28
2023-07-12T15:04:13.197Z,36.31
2023-07-12T15:06:48.877Z,36.60
2023-07-12T15:09:27.996Z,36.36
2023-07-12T15:12:02.937Z,36.71
2023-07-12T15:14:37.904Z,36.40
2023-07-12T15:17:12.497Z,36.57
2023-07-12T15:19:47.781Z,36.83
2023-07-12T15:22:25.874Z,36.83
2023-07-12T15:25:00.709Z,36.81
2023-07-12T15:27:37.507Z,36.86
2023-07-12T22:03:04.101Z,26.43
2023-07-12T22:05:39.259Z,26.43
2023-07-12T22:08:14.016Z,26.01
2023-07-12T22:10:49.790Z,25.97
2023-07-12T22:13:24.133Z,26.07
2023-07-12T22:15:58.792Z,26.09
2023-07-12T22:18:46.956Z,26.10
2023-07-12T22:21:24.647Z,26.09
2023-07-12T22:23:59.137Z,26.05
2023-07-12T22:26:33.911Z,26.01
2023-07-12T22:29:08.573Z,26.13
2023-07-12T22:31:43.590Z,26.09
2023-07-12T22:34:19.461Z,26.10
2023-07-12T22:36:55.197Z,26.08
2023-07-12T22:39:29.951Z,26.00
2023-07-12T22:42:04.861Z,25.85
2023-07-12T22:58:49.981Z,25.85
2023-07-12T23:01:25.220Z,25.85
2023-07-12T23:03:59.982Z,25.31
2023-07-12T23:06:34.694Z,25.39
2023-07-12T23:09:11.327Z,25.26
2023-07-12T23:11:46.839Z,25.31
2023-07-12T23:14:28.257Z,25.17
2023-07-12T23:17:03.846Z,24.85
2023-07-12T23:19:39.820Z,24.60
2023-07-12T23:22:19.097Z,24.72
2023-07-12T23:24:53.463Z,24.49
2023-07-12T23:27:28.093Z,24.35
2023-07-12T23:30:04.104Z,24.29
2023-07-12T23:32:38.956Z,24.32
2023-07-12T23:35:13.326Z,24.24
2023-07-12T23:37:47.957Z,24.29
2023-07-12T23:40:24.474Z,24.28
2023-07-12T23:42:59.351Z,24.04
2023-07-12T23:45:36.132Z,24.23
2023-07-12T23:48:11.133Z,24.10
2023-07-12T23:50:45.900Z,24.15
2023-07-12T23:53:20.616Z,24.03
2023-07-12T23:55:55.002Z,24.11
2023-07-12T23:58:29.715Z,24.05
